Time;durP1;ratioP1;P1;durP2;ratioP2;P2;SDS_P1;SDS_P2;PMS_P1;PMS_P2;Temp;Humidity;BMP_temperature;BMP_pressure;BME280_temperature;BME280_humidity;BME280_pressure;Samples;Min_cycle;Max_cycle;Signal;HPM_P1;HPM_P2
2022/08/20 00:00:52;;;;;;;17.50;12.97;;;21.00;99.90;;;;;;5089401;28;20959;-44
2022/08/20 00:03:34;;;;;;;17.70;14.83;;;21.00;99.90;;;;;;5091151;28;20426;-50
2022/08/20 00:06:10;;;;;;;20.50;16.87;;;21.00;99.90;;;;;;5079761;28;20425;-45
2022/08/20 00:08:36;;;;;;;17.03;14.83;;;20.90;99.90;;;;;;5088789;28;20472;-44
2022/08/20 00:11:05;;;;;;;19.40;14.60;;;20.90;99.90;;;;;;5091505;28;20449;-43
2022/08/20 00:13:42;;;;;;;21.47;18.90;;;21.00;99.90;;;;;;5091051;28;20441;-47
2022/08/20 00:16:09;;;;;;;15.37;13.53;;;21.00;99.90;;;;;;5091574;28;20501;-44
2022/08/20 00:18:36;;;;;;;20.13;16.07;;;21.00;99.90;;;;;;5090442;28;20422;-45
2022/08/20 00:21:04;;;;;;;20.50;17.30;;;21.00;99.90;;;;;;5089490;28;20460;-44
2022/08/20 00:23:29;;;;;;;16.30;14.20;;;20.90;99.90;;;;;;5091125;28;20477;-44
2022/08/20 00:25:55;;;;;;;17.17;13.57;;;20.80;99.90;;;;;;5091157;28;20466;-46
2022/08/20 00:28:21;;;;;;;15.67;14.03;;;20.80;99.90;;;;;;5090452;28;20241;-49
2022/08/20 00:30:47;;;;;;;16.50;14.73;;;20.70;99.90;;;;;;5091073;28;20260;-45
2022/08/20 00:33:18;;;;;;;20.73;16.40;;;20.70;99.90;;;;;;5091018;28;20185;-46
2022/08/20 00:35:51;;;;;;;17.80;15.10;;;20.70;99.90;;;;;;5081628;28;20422;-46
2022/08/20 00:38:17;;;;;;;16.10;14.50;;;20.70;99.90;;;;;;5086342;28;20422;-45
2022/08/20 00:40:47;;;;;;;18.50;15.80;;;20.80;99.90;;;;;;5087621;28;20430;-50
2022/08/20 00:43:28;;;;;;;16.63;14.13;;;20.80;99.90;;;;;;5089456;28;20415;-44
2022/08/20 00:45:56;;;;;;;16.47;14.70;;;20.80;99.90;;;;;;5084169;28;20488;-47
2022/08/20 00:48:24;;;;;;;16.70;15.07;;;20.80;99.90;;;;;;5090188;28;20426;-44
2022/08/20 00:50:52;;;;;;;16.83;15.20;;;20.70;99.90;;;;;;5090727;28;20423;-48
2022/08/20 00:53:20;;;;;;;20.40;16.20;;;20.70;99.90;;;;;;5090625;28;20418;-46
2022/08/20 00:55:46;;;;;;;18.33;16.40;;;20.70;99.90;;;;;;5090695;28;21050;-45
2022/08/20 00:58:12;;;;;;;17.43;15.37;;;20.60;99.90;;;;;;5086719;28;20427;-45
2022/08/20 01:00:44;;;;;;;17.27;15.47;;;20.60;99.90;;;;;;5090030;28;20180;-48
2022/08/20 01:03:13;;;;;;;18.57;16.40;;;20.50;99.90;;;;;;5090487;28;20176;-45
2022/08/20 01:05:45;;;;;;;19.30;17.13;;;20.50;99.90;;;;;;5090341;28;20986;-47
2022/08/20 01:08:11;;;;;;;19.47;17.57;;;20.50;99.90;;;;;;5089860;28;20462;-46
2022/08/20 01:10:41;;;;;;;19.63;17.60;;;20.60;99.90;;;;;;5090055;28;20480;-46
2022/08/20 01:13:10;;;;;;;20.30;18.20;;;20.60;99.90;;;;;;5089998;28;20446;-46
2022/08/20 01:15:40;;;;;;;21.00;17.10;;;20.50;99.90;;;;;;5090464;28;20481;-46
2022/08/20 01:18:09;;;;;;;21.07;18.00;;;20.50;99.90;;;;;;5089615;28;20448;-46
2022/08/20 01:20:43;;;;;;;18.90;16.47;;;20.50;99.90;;;;;;5088683;28;20437;-48
2022/08/20 01:23:26;;;;;;;19.63;17.50;;;20.50;99.90;;;;;;5090040;28;20422;-45
2022/08/20 01:26:02;;;;;;;19.83;17.77;;;20.50;99.90;;;;;;5090318;28;20488;-49
2022/08/20 01:28:51;;;;;;;19.20;17.30;;;20.50;99.90;;;;;;5089562;28;20471;-47
2022/08/20 01:31:27;;;;;;;20.80;16.37;;;20.50;99.90;;;;;;5090006;28;20928;-45
2022/08/20 01:33:55;;;;;;;20.30;18.10;;;20.40;99.90;;;;;;5089862;28;20414;-45
2022/08/20 01:36:32;;;;;;;21.63;17.97;;;20.40;99.90;;;;;;5089826;28;20414;-46
2022/08/20 01:38:59;;;;;;;20.77;18.63;;;20.40;99.90;;;;;;5089793;28;20413;-44
2022/08/20 01:41:32;;;;;;;19.33;16.90;;;20.40;99.90;;;;;;5089730;28;20901;-44
2022/08/20 01:43:58;;;;;;;18.57;16.67;;;20.40;99.90;;;;;;5089872;28;20485;-49
2022/08/20 01:46:33;;;;;;;19.07;17.03;;;20.40;99.90;;;;;;5089654;28;20433;-46
2022/08/20 01:49:05;;;;;;;20.10;18.10;;;20.40;99.90;;;;;;5089470;28;20417;-48
2022/08/20 01:51:31;;;;;;;18.17;16.30;;;20.40;99.90;;;;;;5089831;28;20418;-50
2022/08/20 01:53:58;;;;;;;21.70;17.30;;;20.40;99.90;;;;;;5089779;28;20425;-48
2022/08/20 01:56:28;;;;;;;19.17;17.17;;;20.40;99.90;;;;;;5089839;28;20184;-45
2022/08/20 01:58:56;;;;;;;20.10;18.10;;;20.40;99.90;;;;;;5088819;28;20414;-45
2022/08/20 02:01:34;;;;;;;20.20;18.13;;;20.30;99.90;;;;;;5089829;28;20422;-44
2022/08/20 02:04:02;;;;;;;22.40;19.80;;;20.30;99.90;;;;;;5089365;28;20527;-46
2022/08/20 02:06:30;;;;;;;20.00;17.77;;;20.30;99.90;;;;;;5089821;28;20449;-46
2022/08/20 02:09:00;;;;;;;23.80;18.43;;;20.20;99.90;;;;;;5089800;28;20808;-50
2022/08/20 02:11:28;;;;;;;19.67;17.10;;;20.30;99.90;;;;;;5089547;28;20418;-48
2022/08/20 02:13:55;;;;;;;20.00;17.90;;;20.20;99.90;;;;;;5086957;28;20846;-49
2022/08/20 02:16:29;;;;;;;19.97;17.97;;;20.20;99.90;;;;;;5086179;28;20430;-46
2022/08/20 02:18:59;;;;;;;21.13;18.37;;;20.30;99.90;;;;;;5076208;28;20424;-46
2022/08/20 02:21:30;;;;;;;19.60;17.60;;;20.20;99.90;;;;;;5088107;28;20450;-50
2022/08/20 02:23:56;;;;;;;21.00;18.37;;;20.20;99.90;;;;;;5091826;28;20473;-45
2022/08/20 02:26:22;;;;;;;23.30;20.87;;;20.20;99.90;;;;;;5093393;28;21298;-46
2022/08/20 02:28:50;;;;;;;19.10;17.20;;;20.20;99.90;;;;;;5092735;28;20415;-46
2022/08/20 02:31:18;;;;;;;20.43;18.10;;;20.10;99.90;;;;;;5093466;28;20502;-45
2022/08/20 02:33:44;;;;;;;21.13;18.83;;;20.10;99.90;;;;;;5093203;28;20426;-51
2022/08/20 02:36:11;;;;;;;19.27;17.27;;;20.10;99.90;;;;;;5093439;28;20418;-46
2022/08/20 02:38:39;;;;;;;22.27;20.00;;;20.10;99.90;;;;;;5091779;28;20758;-48
2022/08/20 02:41:06;;;;;;;21.20;19.00;;;20.10;99.90;;;;;;5093321;28;20421;-48
2022/08/20 02:43:31;;;;;;;20.53;18.33;;;20.10;99.90;;;;;;5093050;28;20418;-48
2022/08/20 02:45:58;;;;;;;20.90;18.70;;;20.00;99.90;;;;;;5093109;28;20576;-43
2022/08/20 02:48:24;;;;;;;23.47;19.67;;;20.10;99.90;;;;;;5092466;28;20537;-44
2022/08/20 02:51:00;;;;;;;22.23;19.00;;;20.00;99.90;;;;;;5092751;28;20446;-46
2022/08/20 02:53:28;;;;;;;21.10;18.90;;;20.00;99.90;;;;;;5091704;28;20479;-48
2022/08/20 02:55:55;;;;;;;21.77;18.70;;;20.00;99.90;;;;;;5092855;28;20434;-44
2022/08/20 02:58:21;;;;;;;20.73;18.60;;;20.00;99.90;;;;;;5092233;28;20466;-45
2022/08/20 03:00:48;;;;;;;24.03;19.17;;;19.90;99.90;;;;;;5092684;28;20422;-44
2022/08/20 03:03:15;;;;;;;19.60;17.50;;;19.90;99.90;;;;;;5092810;28;20414;-49
2022/08/20 03:05:43;;;;;;;20.10;17.97;;;19.90;99.90;;;;;;5092194;28;20565;-47
2022/08/20 03:08:11;;;;;;;22.80;20.43;;;19.90;99.90;;;;;;5092232;28;20429;-46
2022/08/20 03:10:38;;;;;;;21.40;17.23;;;19.80;99.90;;;;;;5092587;28;20417;-48
2022/08/20 03:13:09;;;;;;;21.30;19.00;;;19.80;99.90;;;;;;5092611;28;20449;-48
2022/08/20 03:15:35;;;;;;;20.40;18.10;;;19.80;99.90;;;;;;5090060;28;20476;-46
2022/08/20 03:18:01;;;;;;;21.90;18.50;;;19.80;99.90;;;;;;5091412;28;21047;-48
2022/08/20 03:20:28;;;;;;;19.93;17.93;;;19.70;99.90;;;;;;5091026;28;20195;-49
2022/08/20 03:22:54;;;;;;;20.60;17.63;;;19.70;99.90;;;;;;5091042;28;20234;-45
2022/08/20 03:25:20;;;;;;;19.33;17.20;;;19.70;99.90;;;;;;5088257;28;20968;-46
2022/08/20 03:27:46;;;;;;;19.53;17.40;;;19.70;99.90;;;;;;5085997;28;20196;-46
2022/08/20 03:30:14;;;;;;;19.33;16.40;;;19.70;99.90;;;;;;5092174;28;20268;-46
2022/08/20 03:32:41;;;;;;;20.60;17.77;;;19.60;99.90;;;;;;5088714;28;20670;-45
2022/08/20 03:35:09;;;;;;;19.90;17.80;;;19.70;99.90;;;;;;5090932;28;20419;-46
2022/08/20 03:37:35;;;;;;;19.70;16.90;;;19.60;99.90;;;;;;5091484;28;20436;-47
2022/08/20 03:40:03;;;;;;;19.97;17.27;;;19.60;99.90;;;;;;5092094;28;20439;-45
2022/08/20 03:42:30;;;;;;;18.63;16.50;;;19.60;99.90;;;;;;5091925;28;20431;-44
2022/08/20 03:44:55;;;;;;;21.60;18.40;;;19.50;99.90;;;;;;5092259;28;21208;-43
2022/08/20 03:47:22;;;;;;;20.03;17.90;;;19.50;99.90;;;;;;5090865;28;20456;-46
2022/08/20 03:49:48;;;;;;;20.03;17.40;;;19.50;99.90;;;;;;5092002;28;20734;-47
2022/08/20 03:52:15;;;;;;;22.03;19.00;;;19.40;99.90;;;;;;5091661;28;20422;-46
2022/08/20 03:54:41;;;;;;;20.87;17.87;;;19.40;99.90;;;;;;5091889;28;20525;-50
2022/08/20 03:57:12;;;;;;;20.10;17.10;;;19.40;99.90;;;;;;5090829;28;20517;-46
2022/08/20 03:59:38;;;;;;;22.10;18.93;;;19.40;99.90;;;;;;5091616;28;20211;-47
2022/08/20 04:02:05;;;;;;;22.00;18.90;;;19.40;99.90;;;;;;5091571;28;20430;-46
2022/08/20 04:04:31;;;;;;;23.30;19.53;;;19.40;99.90;;;;;;5091645;28;20234;-46
2022/08/20 04:06:57;;;;;;;21.00;18.20;;;19.40;99.90;;;;;;5090840;28;20442;-50
2022/08/20 04:09:23;;;;;;;26.67;20.57;;;19.40;99.90;;;;;;5091714;28;20415;-50
2022/08/20 04:11:49;;;;;;;22.73;18.90;;;19.40;99.90;;;;;;5091403;28;20430;-47
2022/08/20 04:14:14;;;;;;;22.60;18.70;;;19.40;99.90;;;;;;5091259;28;20226;-48
2022/08/20 04:16:40;;;;;;;20.03;17.93;;;19.40;99.90;;;;;;5090600;28;20617;-45
2022/08/20 04:19:07;;;;;;;21.20;18.47;;;19.40;99.90;;;;;;5091323;28;20188;-45
2022/08/20 04:21:34;;;;;;;20.23;17.30;;;19.30;99.90;;;;;;5089903;28;20270;-47
2022/08/20 04:24:02;;;;;;;20.40;17.40;;;19.30;99.90;;;;;;5090933;28;20707;-46
2022/08/20 04:26:29;;;;;;;18.97;16.57;;;19.30;99.90;;;;;;5091171;28;20422;-46
2022/08/20 04:28:55;;;;;;;18.07;16.17;;;19.30;99.90;;;;;;5090150;28;20418;-47
2022/08/20 04:31:23;;;;;;;20.90;17.20;;;19.30;99.90;;;;;;5091285;28;20427;-46
2022/08/20 04:33:49;;;;;;;20.03;17.43;;;19.30;99.90;;;;;;5091086;28;20216;-45
2022/08/20 04:36:15;;;;;;;19.80;17.63;;;19.20;99.90;;;;;;5091063;28;20434;-48
2022/08/20 04:38:41;;;;;;;18.30;16.23;;;19.20;99.90;;;;;;5090240;28;20200;-45
2022/08/20 04:41:07;;;;;;;23.00;17.47;;;19.20;99.90;;;;;;5090864;28;20285;-47
2022/08/20 04:43:35;;;;;;;20.00;17.83;;;19.20;99.90;;;;;;5090531;28;20188;-47
2022/08/20 04:46:05;;;;;;;23.80;19.33;;;19.20;99.90;;;;;;5090129;28;20545;-45
2022/08/20 04:48:31;;;;;;;24.50;17.90;;;19.20;99.90;;;;;;5088874;28;20530;-46
2022/08/20 04:50:57;;;;;;;23.00;19.27;;;19.30;99.90;;;;;;5090870;28;20439;-50
2022/08/20 04:53:25;;;;;;;23.80;18.87;;;19.30;99.90;;;;;;5089250;28;20434;-48
2022/08/20 04:55:53;;;;;;;22.97;19.00;;;19.30;99.90;;;;;;5090503;28;20483;-48
2022/08/20 04:58:26;;;;;;;23.60;18.90;;;19.40;99.90;;;;;;5089724;28;20537;-45
2022/08/20 05:00:54;;;;;;;24.50;20.43;;;19.40;99.90;;;;;;5090765;28;20434;-46
2022/08/20 05:03:21;;;;;;;24.17;20.70;;;19.40;99.90;;;;;;5090316;28;20916;-50
2022/08/20 05:05:47;;;;;;;23.10;20.00;;;19.40;99.90;;;;;;5090266;28;20478;-49
2022/08/20 05:08:15;;;;;;;25.47;20.50;;;19.40;99.90;;;;;;5089766;28;20901;-45
2022/08/20 05:10:42;;;;;;;26.63;20.07;;;19.50;99.90;;;;;;5090044;28;20414;-45
2022/08/20 05:13:08;;;;;;;26.80;19.63;;;19.50;99.90;;;;;;5090136;28;20423;-42
2022/08/20 05:15:35;;;;;;;26.00;20.77;;;19.50;99.90;;;;;;5090326;28;20440;-45
2022/08/20 05:18:04;;;;;;;25.10;19.83;;;19.50;99.90;;;;;;5089617;28;20422;-47
2022/08/20 05:20:33;;;;;;;28.17;20.53;;;19.50;99.90;;;;;;5088716;28;20422;-48
2022/08/20 05:23:00;;;;;;;21.67;18.60;;;19.60;99.90;;;;;;5089681;28;20441;-45
2022/08/20 05:25:30;;;;;;;22.80;20.23;;;19.60;99.90;;;;;;5089673;28;20501;-48
2022/08/20 05:28:04;;;;;;;23.80;20.13;;;19.60;99.90;;;;;;5088921;28;20427;-50
2022/08/20 05:30:32;;;;;;;26.80;19.57;;;19.60;99.90;;;;;;5090134;28;20462;-46
2022/08/20 05:33:02;;;;;;;24.67;19.67;;;19.60;99.90;;;;;;5090010;28;20925;-44
2022/08/20 05:35:28;;;;;;;26.50;20.80;;;19.60;99.90;;;;;;5089867;28;20426;-47
2022/08/20 05:37:56;;;;;;;23.37;19.87;;;19.60;99.90;;;;;;5089172;28;20493;-47
2022/08/20 05:40:23;;;;;;;23.03;18.73;;;19.60;99.90;;;;;;5089869;28;20426;-49
2022/08/20 05:42:50;;;;;;;22.77;19.27;;;19.60;99.90;;;;;;5089238;28;20415;-46
2022/08/20 05:45:17;;;;;;;24.60;20.43;;;19.60;99.90;;;;;;5087498;28;20470;-45
2022/08/20 05:47:43;;;;;;;23.27;18.87;;;19.60;99.90;;;;;;5089148;28;20419;-46
2022/08/20 05:50:11;;;;;;;26.97;19.57;;;19.60;99.90;;;;;;5085650;28;20419;-44
2022/08/20 05:52:39;;;;;;;24.50;18.30;;;19.60;99.90;;;;;;5088546;28;20445;-43
2022/08/20 05:55:07;;;;;;;21.23;17.53;;;19.60;99.90;;;;;;5089789;28;20426;-44
2022/08/20 05:57:33;;;;;;;22.40;17.80;;;19.60;99.90;;;;;;5089494;28;20418;-48
2022/08/20 06:00:01;;;;;;;22.77;18.43;;;19.60;99.90;;;;;;5094012;28;20434;-47
2022/08/20 06:05:12;;;;;;;24.63;19.40;;;19.60;99.90;;;;;;5091370;28;20466;-48
2022/08/20 06:07:38;;;;;;;21.73;17.47;;;19.60;99.90;;;;;;5092950;28;21070;-46
2022/08/20 06:10:05;;;;;;;23.90;18.27;;;19.70;99.90;;;;;;5093703;28;20476;-48
2022/08/20 06:12:31;;;;;;;22.80;18.17;;;19.60;99.90;;;;;;5093701;28;20442;-45
2022/08/20 06:14:57;;;;;;;21.33;17.37;;;19.60;99.90;;;;;;5093339;28;20504;-48
2022/08/20 06:17:23;;;;;;;23.63;18.80;;;19.60;99.90;;;;;;5092674;28;20545;-49
2022/08/20 06:19:49;;;;;;;19.00;15.33;;;19.60;99.90;;;;;;5092384;28;20435;-47
2022/08/20 06:22:15;;;;;;;19.67;17.00;;;19.70;99.90;;;;;;5093518;28;20189;-44
2022/08/20 06:24:41;;;;;;;21.63;17.97;;;19.60;99.90;;;;;;5093578;28;20283;-46
2022/08/20 06:27:07;;;;;;;19.03;16.60;;;19.70;99.90;;;;;;5092350;28;20448;-43
2022/08/20 06:29:35;;;;;;;20.30;15.80;;;19.70;99.90;;;;;;5090941;28;20181;-46
2022/08/20 06:32:00;;;;;;;18.23;15.60;;;19.70;99.90;;;;;;5087141;28;20441;-47
2022/08/20 06:34:27;;;;;;;19.30;16.20;;;19.70;99.90;;;;;;5090118;28;20418;-43
2022/08/20 06:36:55;;;;;;;20.27;15.80;;;19.60;99.90;;;;;;5089643;28;20422;-45
2022/08/20 06:39:21;;;;;;;17.33;15.53;;;19.60;99.90;;;;;;5086717;28;20426;-46
2022/08/20 06:41:46;;;;;;;20.50;16.00;;;19.60;99.90;;;;;;5089950;28;20426;-42
2022/08/20 06:44:13;;;;;;;14.90;12.90;;;19.60;99.90;;;;;;5090125;28;20299;-44
2022/08/20 06:46:39;;;;;;;14.23;12.83;;;19.70;99.90;;;;;;5089862;28;20176;-46
2022/08/20 06:49:07;;;;;;;15.20;13.60;;;19.70;99.90;;;;;;5090365;28;20833;-45
2022/08/20 06:51:36;;;;;;;16.80;15.00;;;19.70;99.90;;;;;;5090724;28;20188;-44
2022/08/20 06:54:02;;;;;;;14.80;13.23;;;19.70;99.90;;;;;;5090353;28;20426;-46
2022/08/20 06:56:28;;;;;;;16.43;13.63;;;19.70;99.90;;;;;;5090461;28;20425;-44
2022/08/20 06:58:54;;;;;;;16.47;14.77;;;19.70;99.90;;;;;;5089692;28;20426;-46
2022/08/20 07:01:20;;;;;;;17.10;15.17;;;19.80;99.90;;;;;;5090244;28;20422;-43
2022/08/20 07:03:47;;;;;;;16.70;14.90;;;19.80;99.90;;;;;;5090194;28;20268;-43
2022/08/20 07:06:14;;;;;;;19.30;15.60;;;19.90;99.90;;;;;;5090206;28;20238;-46
2022/08/20 07:08:41;;;;;;;17.60;15.63;;;20.00;99.90;;;;;;5089494;28;20453;-45
2022/08/20 07:11:08;;;;;;;18.63;16.07;;;20.00;99.90;;;;;;5091037;28;20422;-47
2022/08/20 07:13:36;;;;;;;16.37;14.33;;;20.00;99.90;;;;;;5090598;28;20421;-46
2022/08/20 07:16:04;;;;;;;17.50;15.13;;;20.10;99.90;;;;;;5091190;28;20509;-46
2022/08/20 07:18:30;;;;;;;17.77;15.87;;;20.10;99.90;;;;;;5088763;28;20869;-46
2022/08/20 07:20:56;;;;;;;16.93;15.13;;;20.30;99.90;;;;;;5089770;28;20509;-44
2022/08/20 07:23:23;;;;;;;16.03;14.33;;;20.30;99.90;;;;;;5090548;28;20435;-46
2022/08/20 07:25:49;;;;;;;16.57;14.80;;;20.30;99.90;;;;;;5090775;28;20988;-44
2022/08/20 07:28:19;;;;;;;15.43;13.50;;;20.30;99.90;;;;;;5089594;28;20461;-46
2022/08/20 07:33:30;;;;;;;13.13;11.80;;;20.40;99.90;;;;;;5090560;28;20434;-45
2022/08/20 07:36:02;;;;;;;14.50;12.77;;;20.40;99.90;;;;;;5090601;28;20521;-45
2022/08/20 07:38:29;;;;;;;13.07;11.67;;;20.50;99.90;;;;;;5089389;28;20438;-45
2022/08/20 07:40:59;;;;;;;12.77;11.53;;;20.50;99.90;;;;;;5090652;28;20431;-47
2022/08/20 07:43:26;;;;;;;12.50;11.00;;;20.40;99.90;;;;;;5089919;28;20403;-45
2022/08/20 07:45:55;;;;;;;12.60;11.30;;;20.30;99.90;;;;;;5090437;28;20468;-47
2022/08/20 07:48:24;;;;;;;13.50;12.10;;;20.40;99.90;;;;;;5089717;28;20422;-43
2022/08/20 07:50:51;;;;;;;11.70;10.50;;;20.40;99.90;;;;;;5090110;28;20487;-44
2022/08/20 07:53:17;;;;;;;14.17;12.70;;;20.40;99.90;;;;;;5086999;28;20471;-46
2022/08/20 07:55:43;;;;;;;14.37;12.97;;;20.40;99.90;;;;;;5088602;28;20922;-46
2022/08/20 07:58:13;;;;;;;15.93;14.33;;;20.50;99.90;;;;;;5088350;28;20422;-44
2022/08/20 08:00:39;;;;;;;15.00;13.60;;;20.60;99.90;;;;;;5087219;28;20432;-44
2022/08/20 08:03:06;;;;;;;15.57;14.17;;;20.60;99.90;;;;;;5088808;28;20451;-44
2022/08/20 08:05:37;;;;;;;14.70;13.27;;;20.70;99.90;;;;;;5088317;28;20474;-44
2022/08/20 08:08:05;;;;;;;13.73;12.37;;;20.70;99.90;;;;;;5086026;28;20779;-44
2022/08/20 08:10:32;;;;;;;13.83;12.43;;;20.80;99.90;;;;;;5080434;28;20508;-47
2022/08/20 08:13:01;;;;;;;15.63;13.97;;;20.90;99.90;;;;;;5090812;28;20811;-45
2022/08/20 08:15:31;;;;;;;14.60;13.20;;;21.00;99.90;;;;;;5091342;28;20422;-48
2022/08/20 08:18:04;;;;;;;12.60;11.40;;;21.00;99.90;;;;;;5088951;28;20461;-49
2022/08/20 08:20:30;;;;;;;12.03;11.00;;;21.10;99.90;;;;;;5086233;28;20438;-46
2022/08/20 08:22:56;;;;;;;13.30;12.00;;;21.20;99.90;;;;;;5089606;28;20418;-49
2022/08/20 08:25:22;;;;;;;14.33;12.93;;;21.20;99.90;;;;;;5089480;28;20213;-45
2022/08/20 08:27:47;;;;;;;14.90;13.40;;;21.30;99.90;;;;;;5089092;28;20932;-45
2022/08/20 08:30:15;;;;;;;14.30;12.90;;;21.30;99.90;;;;;;5088276;28;20184;-49
2022/08/20 08:33:26;;;;;;;14.40;13.00;;;21.30;99.90;;;;;;5082945;28;20199;-43
2022/08/20 08:35:28;;;;;;;12.70;11.57;;;21.30;99.90;;;;;;5085848;28;20410;-43
2022/08/20 08:37:53;;;;;;;16.73;15.17;;;21.40;99.90;;;;;;5087628;28;20964;-47
2022/08/20 08:40:21;;;;;;;17.23;15.53;;;21.50;99.90;;;;;;5085422;28;20418;-47
2022/08/20 08:42:56;;;;;;;19.13;17.00;;;21.50;99.90;;;;;;5088023;28;20225;-46
2022/08/20 08:45:28;;;;;;;21.17;17.90;;;21.60;99.90;;;;;;5085052;28;21308;-44
2022/08/20 08:47:54;;;;;;;24.33;21.63;;;21.60;99.90;;;;;;5087402;28;20425;-43
2022/08/20 08:50:28;;;;;;;25.73;21.40;;;21.60;99.90;;;;;;5088180;28;20487;-44
2022/08/20 08:52:58;;;;;;;23.03;20.53;;;21.60;99.90;;;;;;5086702;28;20937;-46
2022/08/20 08:55:25;;;;;;;27.17;23.67;;;21.60;99.90;;;;;;5085316;28;20940;-43
2022/08/20 08:57:54;;;;;;;26.07;22.40;;;21.60;99.90;;;;;;5087503;28;20785;-47
2022/08/20 09:00:21;;;;;;;23.23;20.83;;;21.70;99.90;;;;;;5087806;28;20426;-47
2022/08/20 09:03:32;;;;;;;23.60;21.00;;;21.80;99.90;;;;;;5086110;28;20426;-47
2022/08/20 09:06:04;;;;;;;23.07;19.60;;;21.90;99.90;;;;;;5072524;28;20821;-45
2022/08/20 09:08:35;;;;;;;22.57;20.23;;;21.90;99.90;;;;;;5088097;28;20426;-45
2022/08/20 09:11:07;;;;;;;24.87;22.20;;;22.00;99.90;;;;;;5089075;28;20426;-45
2022/08/20 09:13:33;;;;;;;26.03;23.20;;;22.00;99.90;;;;;;5088793;28;20434;-43
2022/08/20 09:15:59;;;;;;;31.10;27.87;;;22.00;99.90;;;;;;5089199;28;20583;-49
2022/08/20 09:18:25;;;;;;;35.33;30.63;;;22.00;99.90;;;;;;5087626;28;20737;-43
2022/08/20 09:20:51;;;;;;;37.80;32.37;;;21.90;99.90;;;;;;5087062;28;20414;-44
2022/08/20 09:23:17;;;;;;;39.53;33.03;;;21.90;99.90;;;;;;5088342;28;20192;-46
2022/08/20 09:25:43;;;;;;;35.10;31.40;;;21.90;99.90;;;;;;5088611;28;20557;-44
2022/08/20 09:28:08;;;;;;;40.90;36.07;;;21.80;99.90;;;;;;5087838;28;21024;-47
2022/08/20 09:30:34;;;;;;;43.07;35.10;;;21.80;99.90;;;;;;5088787;28;20458;-43
2022/08/20 09:33:01;;;;;;;39.53;34.33;;;21.70;99.90;;;;;;5088055;28;20263;-46
2022/08/20 09:35:27;;;;;;;42.17;33.50;;;21.60;99.90;;;;;;5088779;28;20188;-44
2022/08/20 09:37:53;;;;;;;37.90;32.87;;;21.60;99.90;;;;;;5087573;28;20438;-44
2022/08/20 09:40:20;;;;;;;40.60;34.93;;;21.60;99.90;;;;;;5088427;28;20426;-45
2022/08/20 09:42:46;;;;;;;38.60;34.17;;;21.60;99.90;;;;;;5088172;28;20434;-45
2022/08/20 09:45:12;;;;;;;41.10;33.57;;;21.60;99.90;;;;;;5088553;28;20458;-46
2022/08/20 09:47:40;;;;;;;34.33;30.60;;;21.80;99.90;;;;;;5085952;28;20192;-44
2022/08/20 09:50:06;;;;;;;36.20;32.27;;;21.90;99.90;;;;;;5088385;28;20418;-48
2022/08/20 09:52:35;;;;;;;42.03;33.53;;;22.00;99.90;;;;;;5085984;28;20991;-44
2022/08/20 09:55:05;;;;;;;43.37;35.27;;;22.00;99.90;;;;;;5084827;28;20457;-47
2022/08/20 09:57:31;;;;;;;45.10;38.27;;;22.00;99.90;;;;;;5087526;28;20422;-45
2022/08/20 10:00:07;;;;;;;44.17;37.47;;;21.80;99.90;;;;;;5088273;28;20436;-49
2022/08/20 10:02:33;;;;;;;42.40;35.13;;;21.80;99.90;;;;;;5088492;28;20192;-45
2022/08/20 10:04:59;;;;;;;37.10;33.13;;;21.60;99.90;;;;;;5087978;28;20477;-45
2022/08/20 10:07:24;;;;;;;36.40;32.00;;;21.60;99.90;;;;;;5087439;28;20429;-46
2022/08/20 10:09:50;;;;;;;36.20;31.13;;;21.60;99.90;;;;;;5088012;28;20187;-43
2022/08/20 10:12:16;;;;;;;37.77;31.00;;;21.60;99.90;;;;;;5088206;28;20196;-45
2022/08/20 10:14:41;;;;;;;34.00;29.43;;;21.80;99.90;;;;;;5087699;28;20663;-48
2022/08/20 10:17:07;;;;;;;33.00;29.40;;;22.00;99.90;;;;;;5087719;28;20196;-46
2022/08/20 10:19:33;;;;;;;34.90;30.90;;;22.10;99.90;;;;;;5087107;28;20283;-45
2022/08/20 10:21:59;;;;;;;32.53;29.23;;;22.30;99.90;;;;;;5088263;28;20192;-46
2022/08/20 10:24:25;;;;;;;34.20;30.57;;;22.30;99.90;;;;;;5084740;28;20204;-46
2022/08/20 10:26:55;;;;;;;32.90;29.53;;;22.40;99.90;;;;;;5080982;28;20438;-46
2022/08/20 10:29:21;;;;;;;35.80;31.27;;;22.60;99.90;;;;;;5083087;28;20464;-43
2022/08/20 10:31:47;;;;;;;34.63;31.03;;;22.80;99.90;;;;;;5087817;28;20461;-49
2022/08/20 10:34:13;;;;;;;32.77;29.30;;;22.80;99.90;;;;;;5087660;28;20568;-47
2022/08/20 10:36:41;;;;;;;32.57;28.93;;;22.80;99.90;;;;;;5087558;28;20216;-47
2022/08/20 10:39:06;;;;;;;29.13;25.90;;;23.00;99.90;;;;;;5087356;28;20771;-43
2022/08/20 10:41:32;;;;;;;30.70;27.40;;;23.10;99.90;;;;;;5087892;28;20422;-44
2022/08/20 10:43:58;;;;;;;29.57;26.40;;;23.10;99.90;;;;;;5088987;28;20184;-45
2022/08/20 10:46:24;;;;;;;27.37;24.77;;;23.10;99.90;;;;;;5089187;28;20184;-45
2022/08/20 10:48:49;;;;;;;28.13;25.17;;;23.10;99.90;;;;;;5090766;28;20253;-47
2022/08/20 10:51:15;;;;;;;27.60;24.57;;;23.20;99.90;;;;;;5091304;28;20516;-48
2022/08/20 10:53:41;;;;;;;25.27;22.67;;;23.30;99.90;;;;;;5091429;28;20172;-44
2022/08/20 10:56:06;;;;;;;25.17;22.77;;;23.40;99.90;;;;;;5090061;28;20197;-46
2022/08/20 10:58:32;;;;;;;24.50;22.10;;;23.50;99.90;;;;;;5084645;28;20176;-46
2022/08/20 11:00:58;;;;;;;24.30;21.80;;;23.60;99.90;;;;;;5092021;28;20241;-44
2022/08/20 11:03:24;;;;;;;27.33;23.70;;;23.60;99.90;;;;;;5090845;28;20800;-49
2022/08/20 11:05:49;;;;;;;24.33;21.93;;;23.70;99.90;;;;;;5091296;28;20657;-46
2022/08/20 11:08:15;;;;;;;22.77;20.40;;;23.70;99.90;;;;;;5090776;28;20195;-47
2022/08/20 11:10:41;;;;;;;25.33;22.63;;;23.70;99.90;;;;;;5091148;28;20203;-45
2022/08/20 11:13:07;;;;;;;25.50;19.40;;;23.60;99.90;;;;;;5090653;28;20196;-46
2022/08/20 11:15:36;;;;;;;21.77;19.53;;;23.60;99.90;;;;;;5090941;28;20191;-48
2022/08/20 11:18:03;;;;;;;21.63;19.60;;;23.60;99.90;;;;;;5090391;28;20427;-48
2022/08/20 11:20:30;;;;;;;19.80;17.77;;;23.60;99.90;;;;;;5090083;28;20426;-42
2022/08/20 11:22:56;;;;;;;19.67;17.77;;;23.60;99.90;;;;;;5090889;28;20441;-45
2022/08/20 11:25:23;;;;;;;20.00;18.10;;;23.60;99.90;;;;;;5091209;28;20458;-45
2022/08/20 11:27:50;;;;;;;19.57;17.50;;;23.60;99.90;;;;;;5089783;28;20418;-45
2022/08/20 11:30:22;;;;;;;21.80;19.60;;;23.60;99.90;;;;;;5091023;28;20427;-47
2022/08/20 11:32:48;;;;;;;19.90;17.87;;;23.80;99.90;;;;;;5090613;28;20414;-45
2022/08/20 11:35:14;;;;;;;19.10;17.40;;;23.90;99.90;;;;;;5090799;28;20445;-45
2022/08/20 11:37:40;;;;;;;18.60;16.83;;;24.00;99.90;;;;;;5089855;28;20212;-46
2022/08/20 11:40:10;;;;;;;20.83;18.73;;;24.10;99.90;;;;;;5090516;28;20411;-45
2022/08/20 11:42:37;;;;;;;16.50;15.00;;;24.00;99.90;;;;;;5090678;28;20196;-45
2022/08/20 11:45:04;;;;;;;19.87;17.90;;;24.10;99.90;;;;;;5090502;28;20474;-45
2022/08/20 11:47:32;;;;;;;20.50;18.30;;;24.10;99.90;;;;;;5089943;28;20426;-44
2022/08/20 11:50:05;;;;;;;20.27;18.30;;;24.10;99.90;;;;;;5090212;28;20921;-44
2022/08/20 11:52:31;;;;;;;19.93;17.83;;;24.10;99.90;;;;;;5089917;28;20431;-46
2022/08/20 11:54:57;;;;;;;18.67;16.70;;;24.20;99.90;;;;;;5089642;28;20520;-44
2022/08/20 11:57:26;;;;;;;18.13;16.23;;;24.10;99.90;;;;;;5089072;28;20480;-45
2022/08/20 11:59:53;;;;;;;17.20;15.20;;;24.10;99.90;;;;;;5090454;28;20434;-44
2022/08/20 12:02:19;;;;;;;20.53;18.53;;;24.20;99.90;;;;;;5090377;28;20427;-44
2022/08/20 12:04:45;;;;;;;17.33;15.80;;;24.30;99.90;;;;;;5090177;28;20837;-45
2022/08/20 12:07:15;;;;;;;18.07;16.40;;;24.40;99.90;;;;;;5088922;28;20426;-43
2022/08/20 12:09:42;;;;;;;18.67;16.70;;;24.50;99.90;;;;;;5090264;28;20392;-46
2022/08/20 12:12:08;;;;;;;19.00;17.03;;;24.50;99.90;;;;;;5090299;28;20780;-46
2022/08/20 12:14:34;;;;;;;17.93;16.13;;;24.60;99.90;;;;;;5089999;28;20481;-45
2022/08/20 12:17:11;;;;;;;18.57;16.87;;;24.70;99.90;;;;;;5089061;28;20452;-48
2022/08/20 12:19:39;;;;;;;17.07;15.40;;;24.70;99.90;;;;;;5088365;28;20422;-49
2022/08/20 12:22:05;;;;;;;17.47;15.53;;;24.60;99.90;;;;;;5089876;28;20913;-43
2022/08/20 12:24:31;;;;;;;18.33;16.63;;;24.70;99.90;;;;;;5089444;28;20469;-46
2022/08/20 12:27:08;;;;;;;15.47;14.10;;;24.70;99.90;;;;;;5089350;28;20631;-46
2022/08/20 12:29:33;;;;;;;14.23;12.83;;;24.70;99.90;;;;;;5089455;28;20200;-48
2022/08/20 12:31:59;;;;;;;14.90;13.50;;;24.70;99.90;;;;;;5089744;28;20462;-44
2022/08/20 12:34:25;;;;;;;15.80;14.30;;;24.70;99.90;;;;;;5089289;28;20207;-45
2022/08/20 12:36:59;;;;;;;20.07;15.67;;;24.70;99.90;;;;;;5086768;28;20579;-45